Test XHTML 1.0 Strict Page for WU-History Testing
Station Historical Data
 
Daily Summary for December 20, 2014 Units:  Both    English   Metric
« Previous Day
Next Day »
Daily Weekly Monthly Yearly Custom
  Current: High: Low: Average:
Temperature: 42.6 °F /  5.9 °C 42.6 °F /  5.9 °C 40.8 °F /  4.9 °C 41.8 °F /  5.4 °C
Dew Point: 38.7 °F /  3.7 °C 39.0 °F /  3.9 °C 37.7 °F /  3.2 °C 38.4 °F /  3.6 °C
Humidity: 86% 90% 86% 88%
Wind Speed: 8.1mph /  13km/h 16.1mph /  25.9km/h - 6.8mph /  10.9km/h
Wind Gust: 8.1mph /  13km/h 16.1mph /  25.9km/h - -
WindSSW - - SW
Pressure: 30.08 in /  1018.5 hPa 30.11 in /  1019.5 hPa 30.07 in /  1018.2 hPa -
Precipitation: 0.00 in /  0 mm      
Historical Graphs
 
 
Weather-Above Climate History
Untitled
Tabular Data for December 20, 2014
Time Temperature Dew Point Pressure Wind Wind Speed Wind Gust Humidity Rainfall Rate (Hourly)
00:02 41.0 °F /  5 °C 37.7 °F /  3.2 °C 30.10in /  1019.2hPa NW 6.9mph /  11.1km/h 6.9mph /  11.1km/h 88% 0.00in /  0cm
00:07 41.0 °F /  5 °C 37.7 °F /  3.2 °C 30.10in /  1019.2hPa NNW 8.1mph /  13km/h 8.1mph /  13km/h 88% 0.00in /  0cm
00:12 41.2 °F /  5.1 °C 37.9 °F /  3.3 °C 30.11in /  1019.5hPa ENE 4.6mph /  7.4km/h 4.6mph /  7.4km/h 88% 0.00in /  0cm
00:17 41.4 °F /  5.2 °C 38.1 °F /  3.4 °C 30.10in /  1019.2hPa WNW 6.9mph /  11.1km/h 6.9mph /  11.1km/h 88% 0.00in /  0cm
00:22 41.2 °F /  5.1 °C 37.9 °F /  3.3 °C 30.10in /  1019.2hPa West 5.8mph /  9.3km/h 5.8mph /  9.3km/h 88% 0.00in /  0cm
00:27 41.2 °F /  5.1 °C 37.9 °F /  3.3 °C 30.11in /  1019.5hPa SSW 4.6mph /  7.4km/h 4.6mph /  7.4km/h 88% 0.00in /  0cm
00:32 41.5 °F /  5.3 °C 38.3 °F /  3.5 °C 30.11in /  1019.5hPa ESE 3.5mph /  5.6km/h 3.5mph /  5.6km/h 88% 0.00in /  0cm
00:37 41.9 °F /  5.5 °C 38.6 °F /  3.7 °C 30.11in /  1019.5hPa West 5.8mph /  9.3km/h 5.8mph /  9.3km/h 88% 0.00in /  0cm
00:42 41.5 °F /  5.3 °C 38.3 °F /  3.5 °C 30.11in /  1019.5hPa West 3.5mph /  5.6km/h 3.5mph /  5.6km/h 88% 0.00in /  0cm
00:47 41.4 °F /  5.2 °C 38.4 °F /  3.6 °C 30.11in /  1019.5hPa SSW 2.3mph /  3.7km/h 2.3mph /  3.7km/h 89% 0.00in /  0cm
00:52 41.0 °F /  5 °C 37.7 °F /  3.2 °C 30.11in /  1019.5hPa SE 1.2mph /  1.9km/h 1.2mph /  1.9km/h 88% 0.00in /  0cm
00:57 40.8 °F /  4.9 °C 38.1 °F /  3.4 °C 30.10in /  1019.2hPa NW 5.8mph /  9.3km/h 5.8mph /  9.3km/h 90% 0.00in /  0cm
01:02 41.4 °F /  5.2 °C 38.1 °F /  3.4 °C 30.10in /  1019.2hPa South 3.5mph /  5.6km/h 3.5mph /  5.6km/h 88% 0.00in /  0cm
01:07 41.4 °F /  5.2 °C 38.6 °F /  3.7 °C 30.10in /  1019.2hPa West 5.8mph /  9.3km/h 5.8mph /  9.3km/h 90% 0.00in /  0cm
01:12 41.4 °F /  5.2 °C 38.4 °F /  3.6 °C 30.10in /  1019.2hPa West 5.8mph /  9.3km/h 5.8mph /  9.3km/h 89% 0.00in /  0cm
01:17 41.4 °F /  5.2 °C 38.4 °F /  3.6 °C 30.10in /  1019.2hPa NW 6.9mph /  11.1km/h 6.9mph /  11.1km/h 89% 0.00in /  0cm
01:22 41.5 °F /  5.3 °C 38.3 °F /  3.5 °C 30.10in /  1019.2hPa WSW 2.3mph /  3.7km/h 2.3mph /  3.7km/h 88% 0.00in /  0cm
01:27 41.4 °F /  5.2 °C 38.1 °F /  3.4 °C 30.11in /  1019.5hPa South 4.6mph /  7.4km/h 4.6mph /  7.4km/h 88% 0.00in /  0cm
01:32 41.4 °F /  5.2 °C 38.4 °F /  3.6 °C 30.11in /  1019.5hPa SSW 2.3mph /  3.7km/h 2.3mph /  3.7km/h 89% 0.00in /  0cm
01:37 41.5 °F /  5.3 °C 38.5 °F /  3.6 °C 30.10in /  1019.2hPa West 8.1mph /  13km/h 8.1mph /  13km/h 89% 0.00in /  0cm
01:42 41.7 °F /  5.4 °C 38.4 °F /  3.6 °C 30.10in /  1019.2hPa West 6.9mph /  11.1km/h 6.9mph /  11.1km/h 88% 0.00in /  0cm
01:47 41.7 °F /  5.4 °C 38.4 °F /  3.6 °C 30.11in /  1019.5hPa WNW 3.5mph /  5.6km/h 3.5mph /  5.6km/h 88% 0.00in /  0cm
01:52 41.7 °F /  5.4 °C 38.4 °F /  3.6 °C 30.10in /  1019.2hPa West 2.3mph /  3.7km/h 2.3mph /  3.7km/h 88% 0.00in /  0cm
01:57 41.9 °F /  5.5 °C 38.6 °F /  3.7 °C 30.11in /  1019.5hPa East 4.6mph /  7.4km/h 4.6mph /  7.4km/h 88% 0.00in /  0cm
02:02 41.9 °F /  5.5 °C 38.3 °F /  3.5 °C 30.10in /  1019.2hPa West 10.4mph /  16.7km/h 10.4mph /  16.7km/h 87% 0.00in /  0cm
02:07 41.9 °F /  5.5 °C 38.3 °F /  3.5 °C 30.10in /  1019.2hPa West 2.3mph /  3.7km/h 2.3mph /  3.7km/h 87% 0.00in /  0cm
02:12 41.7 °F /  5.4 °C 38.1 °F /  3.4 °C 30.10in /  1019.2hPa WNW 6.9mph /  11.1km/h 6.9mph /  11.1km/h 87% 0.00in /  0cm
02:17 41.5 °F /  5.3 °C 38.0 °F /  3.3 °C 30.10in /  1019.2hPa SSE 6.9mph /  11.1km/h 6.9mph /  11.1km/h 87% 0.00in /  0cm
02:22 41.5 °F /  5.3 °C 38.0 °F /  3.3 °C 30.10in /  1019.2hPa West 9.2mph /  14.8km/h 9.2mph /  14.8km/h 87% 0.00in /  0cm
02:27 41.4 °F /  5.2 °C 38.1 °F /  3.4 °C 30.10in /  1019.2hPa NW 8.1mph /  13km/h 8.1mph /  13km/h 88% 0.00in /  0cm
02:32 41.4 °F /  5.2 °C 38.1 °F /  3.4 °C 30.10in /  1019.2hPa SW 11.5mph /  18.5km/h 11.5mph /  18.5km/h 88% 0.00in /  0cm
02:37 41.4 °F /  5.2 °C 38.1 °F /  3.4 °C 30.10in /  1019.2hPa SW 3.5mph /  5.6km/h 3.5mph /  5.6km/h 88% 0.00in /  0cm
02:42 41.5 °F /  5.3 °C 38.3 °F /  3.5 °C 30.10in /  1019.2hPa WNW 15.0mph /  24.1km/h 15.0mph /  24.1km/h 88% 0.00in /  0cm
02:47 41.7 °F /  5.4 °C 38.1 °F /  3.4 °C 30.10in /  1019.2hPa SW 2.3mph /  3.7km/h 2.3mph /  3.7km/h 87% 0.00in /  0cm
02:52 41.7 °F /  5.4 °C 38.1 °F /  3.4 °C 30.10in /  1019.2hPa West 3.5mph /  5.6km/h 3.5mph /  5.6km/h 87% 0.00in /  0cm
02:57 41.7 °F /  5.4 °C 38.1 °F /  3.4 °C 30.09in /  1018.8hPa SSE 6.9mph /  11.1km/h 6.9mph /  11.1km/h 87% 0.00in /  0cm
03:02 41.7 °F /  5.4 °C 38.1 °F /  3.4 °C 30.10in /  1019.2hPa West 11.5mph /  18.5km/h 11.5mph /  18.5km/h 87% 0.00in /  0cm
03:07 41.9 °F /  5.5 °C 38.3 °F /  3.5 °C 30.10in /  1019.2hPa SSE 10.4mph /  16.7km/h 10.4mph /  16.7km/h 87% 0.00in /  0cm
03:12 42.1 °F /  5.6 °C 38.5 °F /  3.6 °C 30.10in /  1019.2hPa West 8.1mph /  13km/h 8.1mph /  13km/h 87% 0.00in /  0cm
03:17 42.3 °F /  5.7 °C 38.7 °F /  3.7 °C 30.10in /  1019.2hPa West 8.1mph /  13km/h 8.1mph /  13km/h 87% 0.00in /  0cm
03:22 41.9 °F /  5.5 °C 38.3 °F /  3.5 °C 30.09in /  1018.8hPa SE 8.1mph /  13km/h 8.1mph /  13km/h 87% 0.00in /  0cm
03:27 41.9 °F /  5.5 °C 38.3 °F /  3.5 °C 30.10in /  1019.2hPa WNW 5.8mph /  9.3km/h 5.8mph /  9.3km/h 87% 0.00in /  0cm
03:32 41.9 °F /  5.5 °C 38.6 °F /  3.7 °C 30.10in /  1019.2hPa SSE 5.2mph /  8.4km/h 5.2mph /  8.4km/h 88% 0.00in /  0cm
03:37 42.1 °F /  5.6 °C 38.8 °F /  3.8 °C 30.09in /  1018.8hPa NW 5.8mph /  9.3km/h 5.8mph /  9.3km/h 88% 0.00in /  0cm
03:42 42.1 °F /  5.6 °C 38.8 °F /  3.8 °C 30.10in /  1019.2hPa SSW 4.6mph /  7.4km/h 4.6mph /  7.4km/h 88% 0.00in /  0cm
03:47 42.3 °F /  5.7 °C 39.0 °F /  3.9 °C 30.10in /  1019.2hPa West 10.4mph /  16.7km/h 10.4mph /  16.7km/h 88% 0.00in /  0cm
03:52 42.4 °F /  5.8 °C 38.8 °F /  3.8 °C 30.10in /  1019.2hPa South 4.6mph /  7.4km/h 4.6mph /  7.4km/h 87% 0.00in /  0cm
03:57 42.6 °F /  5.9 °C 39.0 °F /  3.9 °C 30.10in /  1019.2hPa SE 8.1mph /  13km/h 8.1mph /  13km/h 87% 0.00in /  0cm
04:02 42.6 °F /  5.9 °C 39.0 °F /  3.9 °C 30.10in /  1019.2hPa WSW 12.7mph /  20.4km/h 12.7mph /  20.4km/h 87% 0.00in /  0cm
04:07 42.6 °F /  5.9 °C 38.7 °F /  3.7 °C 30.09in /  1018.8hPa West 8.1mph /  13km/h 8.1mph /  13km/h 86% 0.00in /  0cm
04:12 42.6 °F /  5.9 °C 38.7 °F /  3.7 °C 30.08in /  1018.5hPa NNE 8.1mph /  13km/h 8.1mph /  13km/h 86% 0.00in /  0cm
04:17 42.6 °F /  5.9 °C 38.7 °F /  3.7 °C 30.08in /  1018.5hPa SE 11.5mph /  18.5km/h 11.5mph /  18.5km/h 86% 0.00in /  0cm
04:22 42.6 °F /  5.9 °C 38.7 °F /  3.7 °C 30.08in /  1018.5hPa WNW 6.9mph /  11.1km/h 6.9mph /  11.1km/h 86% 0.00in /  0cm
04:27 42.3 °F /  5.7 °C 38.4 °F /  3.6 °C 30.07in /  1018.2hPa WSW 8.5mph /  13.7km/h 8.5mph /  13.7km/h 86% 0.00in /  0cm
04:32 42.3 °F /  5.7 °C 38.4 °F /  3.6 °C 30.08in /  1018.5hPa West 6.9mph /  11.1km/h 6.9mph /  11.1km/h 86% 0.00in /  0cm
04:37 42.4 °F /  5.8 °C 38.8 °F /  3.8 °C 30.08in /  1018.5hPa NW 16.1mph /  25.9km/h 16.1mph /  25.9km/h 87% 0.00in /  0cm
04:42 42.6 °F /  5.9 °C 38.7 °F /  3.7 °C 30.08in /  1018.5hPa SW 8.1mph /  13km/h 8.1mph /  13km/h 86% 0.00in /  0cm
04:47 42.6 °F /  5.9 °C 38.7 °F /  3.7 °C 30.08in /  1018.5hPa NNW 10.4mph /  16.7km/h 10.4mph /  16.7km/h 86% 0.00in /  0cm
04:52 42.6 °F /  5.9 °C 38.7 °F /  3.7 °C 30.08in /  1018.5hPa SE 5.8mph /  9.3km/h 5.8mph /  9.3km/h 86% 0.00in /  0cm
04:57 42.6 °F /  5.9 °C 38.7 °F /  3.7 °C 30.08in /  1018.5hPa South 9.2mph /  14.8km/h 9.2mph /  14.8km/h 86% 0.00in /  0cm
05:02 42.6 °F /  5.9 °C 38.7 °F /  3.7 °C 30.08in /  1018.5hPa SSW 8.1mph /  13km/h 8.1mph /  13km/h 86% 0.00in /  0cm
Wether-Above
Compliments of Weather Underground
Welcome to Weather-Above
Cheddleton weather station supplies various organisations with data from our weather station one of them is the weather Underground this information displayed here is coming from the weather Underground server 

If any information is used please acknowledge the source to www weather-above.com or weather Underground